PWSweather.com
Personal Weather Stations
Station Observations

SkegnessGB

Lat: 53.147585, Lon: 0.345774

Elevation: 18

Station Type: Fine Offset WH3080

http://www.skegnessweather.info/

High Low Average
Temperature 50.7°F10.4°F 39.9°F4.4°F 44.8°F7.1°F
Dew Point 40.1°F4.5°F 35.4°F1.9°F 37.6°F3.1°F
Winds 7.0 mph SE11.3 mph SE 0.2 mph 0.3 mph 3.8 mph 6.1 mph
Wind Gusts 18.5 mph29.8 mph 1.6 mph2.6 mph 10.2 mph16.4 mph
Humidity 84% 64% 76%
Pressure 30.64 in1037.60 in 30.38 in1028.80 in -
Precipitation 0.00 in0.00 in - -
Hour Temp Dew Point Humidity Winds Wind Gusts Pressure Precip Precip Rate Daily Precip Total
12:00 AM 43.0°F6.1°C 36.9°F2.7°C 79% 5.1 mph E8.2 kmh E 13.8 mph22.2 kmh 30.39 in1029.1 mb 0.00 in0.0 mm 0.00 in0.0 mm 0.00 in0.0 mm
12:12 AM 43.0°F6.1°C 36.9°F2.7°C 79% 4.0 mph ENE6.4 kmh ENE 12.2 mph19.6 kmh 30.38 in1028.8 mb 0.00 in0.0 mm 0.00 in0.0 mm 0.00 in0.0 mm
12:24 AM 42.8°F6.0°C 37.1°F2.8°C 80% 4.7 mph E7.6 kmh E 13.1 mph21.1 kmh 30.39 in1029.1 mb 0.00 in0.0 mm 0.00 in0.0 mm 0.00 in0.0 mm
12:36 AM 42.8°F6.0°C 37.4°F3.0°C 81% 5.2 mph NE8.4 kmh NE 13.8 mph22.2 kmh 30.40 in1029.5 mb 0.00 in0.0 mm 0.00 in0.0 mm 0.00 in0.0 mm
12:48 AM 42.8°F6.0°C 37.4°F3.0°C 81% 4.5 mph E7.2 kmh E 13.1 mph21.1 kmh 30.40 in1029.5 mb 0.00 in0.0 mm 0.00 in0.0 mm 0.00 in0.0 mm
01:00 AM 42.8°F6.0°C 37.4°F3.0°C 81% 5.5 mph SE8.9 kmh SE 13.1 mph21.1 kmh 30.40 in1029.5 mb 0.00 in0.0 mm 0.00 in0.0 mm 0.00 in0.0 mm
01:12 AM 42.6°F5.9°C 37.5°F3.1°C 82% 7.0 mph SE11.3 kmh SE 13.1 mph21.1 kmh 30.40 in1029.5 mb 0.00 in0.0 mm 0.00 in0.0 mm 0.00 in0.0 mm
01:24 AM 42.8°F6.0°C 37.4°F3.0°C 81% 5.0 mph ENE8.0 kmh ENE 11.5 mph18.5 kmh 30.41 in1029.8 mb 0.00 in0.0 mm 0.00 in0.0 mm 0.00 in0.0 mm
01:36 AM 42.6°F5.9°C 37.5°F3.1°C 82% 4.4 mph E7.1 kmh E 16.0 mph25.7 kmh 30.40 in1029.5 mb 0.00 in0.0 mm 0.00 in0.0 mm 0.00 in0.0 mm
01:48 AM 42.6°F5.9°C 37.5°F3.1°C 82% 5.3 mph E8.5 kmh E 18.5 mph29.8 kmh 30.41 in1029.8 mb 0.00 in0.0 mm 0.00 in0.0 mm 0.00 in0.0 mm
02:00 AM 42.6°F5.9°C 37.5°F3.1°C 82% 5.6 mph E9.0 kmh E 13.8 mph22.2 kmh 30.41 in1029.8 mb 0.00 in0.0 mm 0.00 in0.0 mm 0.00 in0.0 mm
02:12 AM 42.6°F5.9°C 37.5°F3.1°C 82% 4.7 mph ESE7.6 kmh ESE 13.1 mph21.1 kmh 30.41 in1029.8 mb 0.00 in0.0 mm 0.00 in0.0 mm 0.00 in0.0 mm
02:24 AM 42.4°F5.8°C 37.3°F2.9°C 82% 3.7 mph E6.0 kmh E 9.9 mph15.9 kmh 30.41 in1029.8 mb 0.00 in0.0 mm 0.00 in0.0 mm 0.00 in0.0 mm
02:36 AM 42.4°F5.8°C 37.3°F2.9°C 82% 3.7 mph N6.0 kmh N 9.9 mph15.9 kmh 30.41 in1029.8 mb 0.00 in0.0 mm 0.00 in0.0 mm 0.00 in0.0 mm
02:48 AM 42.3°F5.7°C 37.2°F2.9°C 82% 4.0 mph NE6.4 kmh NE 12.2 mph19.6 kmh 30.42 in1030.1 mb 0.00 in0.0 mm 0.00 in0.0 mm 0.00 in0.0 mm
03:00 AM 42.3°F5.7°C 37.2°F2.9°C 82% 3.8 mph ENE6.1 kmh ENE 11.5 mph18.5 kmh 30.42 in1030.1 mb 0.00 in0.0 mm 0.00 in0.0 mm 0.00 in0.0 mm
03:12 AM 42.1°F5.6°C 37.0°F2.8°C 82% 3.9 mph E6.3 kmh E 11.5 mph18.5 kmh 30.42 in1030.1 mb 0.00 in0.0 mm 0.00 in0.0 mm 0.00 in0.0 mm
03:24 AM 42.3°F5.7°C 37.5°F3.1°C 83% 4.6 mph E7.4 kmh E 14.7 mph23.7 kmh 30.42 in1030.1 mb 0.00 in0.0 mm 0.00 in0.0 mm 0.00 in0.0 mm
03:36 AM 42.1°F5.6°C 37.3°F2.9°C 83% 4.3 mph SE6.9 kmh SE 13.8 mph22.2 kmh 30.42 in1030.1 mb 0.00 in0.0 mm 0.00 in0.0 mm 0.00 in0.0 mm
03:48 AM 42.1°F5.6°C 37.3°F2.9°C 83% 4.4 mph E7.1 kmh E 11.5 mph18.5 kmh 30.42 in1030.1 mb 0.00 in0.0 mm 0.00 in0.0 mm 0.00 in0.0 mm
04:00 AM 42.1°F5.6°C 37.3°F2.9°C 83% 5.0 mph NE8.0 kmh NE 13.8 mph22.2 kmh 30.42 in1030.1 mb 0.00 in0.0 mm 0.00 in0.0 mm 0.00 in0.0 mm
04:12 AM 42.1°F5.6°C 37.3°F2.9°C 83% 4.1 mph E6.6 kmh E 13.1 mph21.1 kmh 30.42 in1030.1 mb 0.00 in0.0 mm 0.00 in0.0 mm 0.00 in0.0 mm
04:24 AM 42.1°F5.6°C 37.0°F2.8°C 82% 4.4 mph E7.1 kmh E 12.2 mph19.6 kmh 30.42 in1030.1 mb 0.00 in0.0 mm 0.00 in0.0 mm 0.00 in0.0 mm
04:36 AM 42.3°F5.7°C 37.2°F2.9°C 82% 4.3 mph E6.9 kmh E 10.8 mph17.4 kmh 30.43 in1030.5 mb 0.00 in0.0 mm 0.00 in0.0 mm 0.00 in0.0 mm
04:48 AM 42.1°F5.6°C 37.0°F2.8°C 82% 4.8 mph NNE7.7 kmh NNE 13.8 mph22.2 kmh 30.43 in1030.5 mb 0.00 in0.0 mm 0.00 in0.0 mm 0.00 in0.0 mm
05:00 AM 42.1°F5.6°C 37.0°F2.8°C 82% 3.9 mph E6.3 kmh E 10.8 mph17.4 kmh 30.43 in1030.5 mb 0.00 in0.0 mm 0.00 in0.0 mm 0.00 in0.0 mm
05:12 AM 42.1°F5.6°C 37.0°F2.8°C 82% 3.1 mph N5.0 kmh N 10.8 mph17.4 kmh 30.43 in1030.5 mb 0.00 in0.0 mm 0.00 in0.0 mm 0.00 in0.0 mm
05:24 AM 41.9°F5.5°C 36.8°F2.7°C 82% 4.6 mph NE7.4 kmh NE 11.5 mph18.5 kmh 30.43 in1030.5 mb 0.00 in0.0 mm 0.00 in0.0 mm 0.00 in0.0 mm
05:36 AM 41.9°F5.5°C 36.8°F2.7°C 82% 4.5 mph ENE7.2 kmh ENE 12.2 mph19.6 kmh 30.43 in1030.5 mb 0.00 in0.0 mm 0.00 in0.0 mm 0.00 in0.0 mm
05:48 AM 42.1°F5.6°C 37.0°F2.8°C 82% 4.4 mph NE7.1 kmh NE 11.5 mph18.5 kmh 30.43 in1030.5 mb 0.00 in0.0 mm 0.00 in0.0 mm 0.00 in0.0 mm
06:00 AM 42.1°F5.6°C 37.0°F2.8°C 82% 4.6 mph NE7.4 kmh NE 13.1 mph21.1 kmh 30.44 in1030.8 mb 0.00 in0.0 mm 0.00 in0.0 mm 0.00 in0.0 mm
06:12 AM 42.3°F5.7°C 37.2°F2.9°C 82% 4.5 mph N7.2 kmh N 13.8 mph22.2 kmh 30.44 in1030.8 mb 0.00 in0.0 mm 0.00 in0.0 mm 0.00 in0.0 mm
06:24 AM 42.6°F5.9°C 37.5°F3.1°C 82% 5.1 mph E8.2 kmh E 15.4 mph24.8 kmh 30.45 in1031.2 mb 0.00 in0.0 mm 0.00 in0.0 mm 0.00 in0.0 mm
06:36 AM 43.2°F6.2°C 37.7°F3.2°C 81% 4.9 mph E7.9 kmh E 11.5 mph18.5 kmh 30.46 in1031.5 mb 0.00 in0.0 mm 0.00 in0.0 mm 0.00 in0.0 mm
06:48 AM 43.2°F6.2°C 37.4°F3.0°C 80% 5.2 mph E8.4 kmh E 14.7 mph23.7 kmh 30.47 in1031.8 mb 0.00 in0.0 mm 0.00 in0.0 mm 0.00 in0.0 mm
07:00 AM 43.2°F6.2°C 37.4°F3.0°C 80% 5.0 mph E8.0 kmh E 15.4 mph24.8 kmh 30.47 in1031.8 mb 0.00 in0.0 mm 0.00 in0.0 mm 0.00 in0.0 mm
07:12 AM 43.2°F6.2°C 37.1°F2.8°C 79% 4.7 mph E7.6 kmh E 10.8 mph17.4 kmh 30.48 in1032.2 mb 0.00 in0.0 mm 0.00 in0.0 mm 0.00 in0.0 mm
07:24 AM 43.7°F6.5°C 37.6°F3.1°C 79% 4.6 mph ENE7.4 kmh ENE 12.2 mph19.6 kmh 30.48 in1032.2 mb 0.00 in0.0 mm 0.00 in0.0 mm 0.00 in0.0 mm
07:36 AM 43.9°F6.6°C 37.5°F3.1°C 78% 4.8 mph ESE7.7 kmh ESE 11.5 mph18.5 kmh 30.49 in1032.5 mb 0.00 in0.0 mm 0.00 in0.0 mm 0.00 in0.0 mm
07:48 AM 44.2°F6.8°C 37.5°F3.1°C 77% 4.3 mph E6.9 kmh E 10.8 mph17.4 kmh 30.49 in1032.5 mb 0.00 in0.0 mm 0.00 in0.0 mm 0.00 in0.0 mm
08:00 AM 44.6°F7.0°C 37.8°F3.2°C 77% 4.5 mph E7.2 kmh E 13.1 mph21.1 kmh 30.50 in1032.8 mb 0.00 in0.0 mm 0.00 in0.0 mm 0.00 in0.0 mm
08:12 AM 45.0°F7.2°C 37.9°F3.3°C 76% 4.4 mph ENE7.1 kmh ENE 11.5 mph18.5 kmh 30.51 in1033.2 mb 0.00 in0.0 mm 0.00 in0.0 mm 0.00 in0.0 mm
08:24 AM 45.5°F7.5°C 38.4°F3.6°C 76% 3.8 mph ENE6.1 kmh ENE 9.9 mph15.9 kmh 30.51 in1033.2 mb 0.00 in0.0 mm 0.00 in0.0 mm 0.00 in0.0 mm
08:36 AM 46.8°F8.2°C 38.9°F3.8°C 74% 5.3 mph ENE8.5 kmh ENE 10.8 mph17.4 kmh 30.53 in1033.9 mb 0.00 in0.0 mm 0.00 in0.0 mm 0.00 in0.0 mm
08:48 AM 47.7°F8.7°C 39.1°F3.9°C 72% 4.3 mph ESE6.9 kmh ESE 13.1 mph21.1 kmh 30.52 in1033.5 mb 0.00 in0.0 mm 0.00 in0.0 mm 0.00 in0.0 mm
09:00 AM 47.8°F8.8°C 38.5°F3.6°C 70% 4.9 mph E7.9 kmh E 11.5 mph18.5 kmh 30.53 in1033.9 mb 0.00 in0.0 mm 0.00 in0.0 mm 0.00 in0.0 mm
09:12 AM 48.0°F8.9°C 38.7°F3.7°C 70% 4.5 mph W7.2 kmh W 12.2 mph19.6 kmh 30.54 in1034.2 mb 0.00 in0.0 mm 0.00 in0.0 mm 0.00 in0.0 mm
09:24 AM 48.4°F9.1°C 38.3°F3.5°C 68% 5.3 mph ESE8.5 kmh ESE 13.8 mph22.2 kmh 30.54 in1034.2 mb 0.00 in0.0 mm 0.00 in0.0 mm 0.00 in0.0 mm
09:36 AM 48.7°F9.3°C 38.3°F3.5°C 67% 5.0 mph ESE8.0 kmh ESE 12.2 mph19.6 kmh 30.53 in1033.9 mb 0.00 in0.0 mm 0.00 in0.0 mm 0.00 in0.0 mm
09:48 AM 48.7°F9.3°C 38.7°F3.7°C 68% 4.8 mph NE7.7 kmh NE 11.5 mph18.5 kmh 30.54 in1034.2 mb 0.00 in0.0 mm 0.00 in0.0 mm 0.00 in0.0 mm
10:00 AM 48.6°F9.2°C 38.5°F3.6°C 68% 6.0 mph ESE9.7 kmh ESE 13.1 mph21.1 kmh 30.53 in1033.9 mb 0.00 in0.0 mm 0.00 in0.0 mm 0.00 in0.0 mm
10:12 AM 48.6°F9.2°C 38.1°F3.4°C 67% 5.6 mph ENE9.0 kmh ENE 13.8 mph22.2 kmh 30.52 in1033.5 mb 0.00 in0.0 mm 0.00 in0.0 mm 0.00 in0.0 mm
10:24 AM 48.7°F9.3°C 38.3°F3.5°C 67% 6.2 mph E10.0 kmh E 13.1 mph21.1 kmh 30.54 in1034.2 mb 0.00 in0.0 mm 0.00 in0.0 mm 0.00 in0.0 mm
10:36 AM 49.3°F9.6°C 38.4°F3.6°C 66% 5.1 mph ENE8.2 kmh ENE 14.7 mph23.7 kmh 30.54 in1034.2 mb 0.00 in0.0 mm 0.00 in0.0 mm 0.00 in0.0 mm
10:48 AM 49.1°F9.5°C 38.2°F3.4°C 66% 5.7 mph E9.2 kmh E 13.8 mph22.2 kmh 30.55 in1034.5 mb 0.00 in0.0 mm 0.00 in0.0 mm 0.00 in0.0 mm
11:00 AM 49.8°F9.9°C 38.5°F3.6°C 65% 5.0 mph E8.0 kmh E 11.5 mph18.5 kmh 30.55 in1034.5 mb 0.00 in0.0 mm 0.00 in0.0 mm 0.00 in0.0 mm
11:12 AM 49.1°F9.5°C 38.2°F3.4°C 66% 6.1 mph ENE9.8 kmh ENE 10.8 mph17.4 kmh 30.55 in1034.5 mb 0.00 in0.0 mm 0.00 in0.0 mm 0.00 in0.0 mm
11:24 AM 48.7°F9.3°C 37.9°F3.3°C 66% 5.9 mph E9.5 kmh E 15.4 mph24.8 kmh 30.56 in1034.9 mb 0.00 in0.0 mm 0.00 in0.0 mm 0.00 in0.0 mm
11:36 AM 49.1°F9.5°C 38.2°F3.4°C 66% 4.8 mph E7.7 kmh E 11.5 mph18.5 kmh 30.57 in1035.2 mb 0.00 in0.0 mm 0.00 in0.0 mm 0.00 in0.0 mm
11:48 AM 49.3°F9.6°C 38.8°F3.8°C 67% 5.0 mph E8.0 kmh E 12.2 mph19.6 kmh 30.56 in1034.9 mb 0.00 in0.0 mm 0.00 in0.0 mm 0.00 in0.0 mm
12:00 PM 49.6°F9.8°C 38.8°F3.8°C 66% 5.4 mph E8.7 kmh E 10.8 mph17.4 kmh 30.56 in1034.9 mb 0.00 in0.0 mm 0.00 in0.0 mm 0.00 in0.0 mm
12:12 PM 49.6°F9.8°C 38.8°F3.8°C 66% 4.6 mph E7.4 kmh E 12.2 mph19.6 kmh 30.57 in1035.2 mb 0.00 in0.0 mm 0.00 in0.0 mm 0.00 in0.0 mm
12:24 PM 49.3°F9.6°C 38.8°F3.8°C 67% 5.3 mph ESE8.5 kmh ESE 14.7 mph23.7 kmh 30.57 in1035.2 mb 0.00 in0.0 mm 0.00 in0.0 mm 0.00 in0.0 mm
12:36 PM 50.4°F10.2°C 39.1°F3.9°C 65% 4.2 mph ENE6.8 kmh ENE 13.1 mph21.1 kmh 30.57 in1035.2 mb 0.00 in0.0 mm 0.00 in0.0 mm 0.00 in0.0 mm
12:48 PM 50.7°F10.4°C 39.0°F3.9°C 64% 4.1 mph ENE6.6 kmh ENE 9.9 mph15.9 kmh 30.55 in1034.5 mb 0.00 in0.0 mm 0.00 in0.0 mm 0.00 in0.0 mm
01:00 PM 50.0°F10.0°C 38.3°F3.5°C 64% 5.3 mph E8.5 kmh E 12.2 mph19.6 kmh 30.55 in1034.5 mb 0.00 in0.0 mm 0.00 in0.0 mm 0.00 in0.0 mm
01:12 PM 50.0°F10.0°C 38.3°F3.5°C 64% 6.6 mph E10.6 kmh E 11.5 mph18.5 kmh 30.55 in1034.5 mb 0.00 in0.0 mm 0.00 in0.0 mm 0.00 in0.0 mm
01:24 PM 49.8°F9.9°C 38.9°F3.8°C 66% 5.5 mph ESE8.9 kmh ESE 12.2 mph19.6 kmh 30.55 in1034.5 mb 0.00 in0.0 mm 0.00 in0.0 mm 0.00 in0.0 mm
01:36 PM 50.0°F10.0°C 38.7°F3.7°C 65% 4.0 mph E6.4 kmh E 10.8 mph17.4 kmh 30.55 in1034.5 mb 0.00 in0.0 mm 0.00 in0.0 mm 0.00 in0.0 mm
01:48 PM 50.2°F10.1°C 38.9°F3.8°C 65% 4.8 mph E7.7 kmh E 12.2 mph19.6 kmh 30.55 in1034.5 mb 0.00 in0.0 mm 0.00 in0.0 mm 0.00 in0.0 mm
02:00 PM 50.2°F10.1°C 38.9°F3.8°C 65% 4.9 mph ESE7.9 kmh ESE 11.5 mph18.5 kmh 30.55 in1034.5 mb 0.00 in0.0 mm 0.00 in0.0 mm 0.00 in0.0 mm
02:12 PM 50.7°F10.4°C 39.4°F4.1°C 65% 4.5 mph NE7.2 kmh NE 9.9 mph15.9 kmh 30.55 in1034.5 mb 0.00 in0.0 mm 0.00 in0.0 mm 0.00 in0.0 mm
02:24 PM 50.0°F10.0°C 38.3°F3.5°C 64% 4.8 mph E7.7 kmh E 11.5 mph18.5 kmh 30.55 in1034.5 mb 0.00 in0.0 mm 0.00 in0.0 mm 0.00 in0.0 mm
02:36 PM 49.5°F9.7°C 38.6°F3.7°C 66% 5.0 mph ENE8.0 kmh ENE 11.5 mph18.5 kmh 30.56 in1034.9 mb 0.00 in0.0 mm 0.00 in0.0 mm 0.00 in0.0 mm
02:48 PM 49.8°F9.9°C 39.3°F4.1°C 67% 4.0 mph E6.4 kmh E 9.9 mph15.9 kmh 30.56 in1034.9 mb 0.00 in0.0 mm 0.00 in0.0 mm 0.00 in0.0 mm
03:00 PM 50.2°F10.1°C 39.3°F4.1°C 66% 3.9 mph E6.3 kmh E 11.5 mph18.5 kmh 30.55 in1034.5 mb 0.00 in0.0 mm 0.00 in0.0 mm 0.00 in0.0 mm
03:12 PM 50.0°F10.0°C 38.7°F3.7°C 65% 5.3 mph E8.5 kmh E 10.8 mph17.4 kmh 30.56 in1034.9 mb 0.00 in0.0 mm 0.00 in0.0 mm 0.00 in0.0 mm
03:24 PM 50.0°F10.0°C 39.1°F3.9°C 66% 4.2 mph E6.8 kmh E 11.5 mph18.5 kmh 30.56 in1034.9 mb 0.00 in0.0 mm 0.00 in0.0 mm 0.00 in0.0 mm
03:36 PM 49.5°F9.7°C 39.7°F4.3°C 69% 4.0 mph E6.4 kmh E 10.8 mph17.4 kmh 30.57 in1035.2 mb 0.00 in0.0 mm 0.00 in0.0 mm 0.00 in0.0 mm
03:48 PM 47.7°F8.7°C 38.7°F3.7°C 71% 4.4 mph NE7.1 kmh NE 10.8 mph17.4 kmh 30.57 in1035.2 mb 0.00 in0.0 mm 0.00 in0.0 mm 0.00 in0.0 mm
04:00 PM 48.4°F9.1°C 40.1°F4.5°C 73% 3.4 mph E5.5 kmh E 9.3 mph15.0 kmh 30.57 in1035.2 mb 0.00 in0.0 mm 0.00 in0.0 mm 0.00 in0.0 mm
04:12 PM 47.7°F8.7°C 38.7°F3.7°C 71% 3.6 mph E5.8 kmh E 8.4 mph13.5 kmh 30.57 in1035.2 mb 0.00 in0.0 mm 0.00 in0.0 mm 0.00 in0.0 mm
04:24 PM 46.4°F8.0°C 38.6°F3.7°C 74% 4.2 mph E6.8 kmh E 10.8 mph17.4 kmh 30.57 in1035.2 mb 0.00 in0.0 mm 0.00 in0.0 mm 0.00 in0.0 mm
04:36 PM 46.0°F7.8°C 38.9°F3.8°C 76% 3.5 mph E5.6 kmh E 10.8 mph17.4 kmh 30.57 in1035.2 mb 0.00 in0.0 mm 0.00 in0.0 mm 0.00 in0.0 mm
04:48 PM 45.5°F7.5°C 38.4°F3.6°C 76% 4.1 mph ENE6.6 kmh ENE 9.3 mph15.0 kmh 30.57 in1035.2 mb 0.00 in0.0 mm 0.00 in0.0 mm 0.00 in0.0 mm
05:00 PM 45.3°F7.4°C 38.2°F3.4°C 76% 3.1 mph SSE5.0 kmh SSE 10.8 mph17.4 kmh 30.57 in1035.2 mb 0.00 in0.0 mm 0.00 in0.0 mm 0.00 in0.0 mm
05:12 PM 45.1°F7.3°C 38.0°F3.3°C 76% 3.5 mph SE5.6 kmh SE 7.0 mph11.3 kmh 30.57 in1035.2 mb 0.00 in0.0 mm 0.00 in0.0 mm 0.00 in0.0 mm
05:24 PM 45.0°F7.2°C 37.9°F3.3°C 76% 3.0 mph SSE4.8 kmh SSE 8.4 mph13.5 kmh 30.59 in1035.9 mb 0.00 in0.0 mm 0.00 in0.0 mm 0.00 in0.0 mm
05:36 PM 44.8°F7.1°C 37.7°F3.2°C 76% 2.7 mph E4.3 kmh E 8.4 mph13.5 kmh 30.58 in1035.6 mb 0.00 in0.0 mm 0.00 in0.0 mm 0.00 in0.0 mm
05:48 PM 44.4°F6.9°C 37.3°F2.9°C 76% 2.7 mph E4.3 kmh E 7.7 mph12.4 kmh 30.58 in1035.6 mb 0.00 in0.0 mm 0.00 in0.0 mm 0.00 in0.0 mm
06:00 PM 44.2°F6.8°C 37.2°F2.9°C 76% 2.9 mph ENE4.7 kmh ENE 7.7 mph12.4 kmh 30.57 in1035.2 mb 0.00 in0.0 mm 0.00 in0.0 mm 0.00 in0.0 mm
06:12 PM 43.7°F6.5°C 37.0°F2.8°C 77% 2.8 mph ENE4.5 kmh ENE 7.7 mph12.4 kmh 30.59 in1035.9 mb 0.00 in0.0 mm 0.00 in0.0 mm 0.00 in0.0 mm
06:24 PM 43.5°F6.4°C 36.5°F2.5°C 76% 2.7 mph ENE4.3 kmh ENE 6.1 mph9.8 kmh 30.59 in1035.9 mb 0.00 in0.0 mm 0.00 in0.0 mm 0.00 in0.0 mm
06:36 PM 43.3°F6.3°C 36.3°F2.4°C 76% 2.6 mph E4.2 kmh E 7.0 mph11.3 kmh 30.59 in1035.9 mb 0.00 in0.0 mm 0.00 in0.0 mm 0.00 in0.0 mm
06:48 PM 43.0°F6.1°C 35.9°F2.2°C 76% 1.7 mph NE2.7 kmh NE 6.1 mph9.8 kmh 30.59 in1035.9 mb 0.00 in0.0 mm 0.00 in0.0 mm 0.00 in0.0 mm
07:00 PM 42.8°F6.0°C 36.1°F2.3°C 77% 2.2 mph NE3.5 kmh NE 6.1 mph9.8 kmh 30.59 in1035.9 mb 0.00 in0.0 mm 0.00 in0.0 mm 0.00 in0.0 mm
07:12 PM 42.8°F6.0°C 36.1°F2.3°C 77% 2.3 mph NE3.7 kmh NE 6.1 mph9.8 kmh 30.60 in1036.2 mb 0.00 in0.0 mm 0.00 in0.0 mm 0.00 in0.0 mm
07:24 PM 42.8°F6.0°C 36.4°F2.4°C 78% 2.0 mph NNW3.2 kmh NNW 7.7 mph12.4 kmh 30.60 in1036.2 mb 0.00 in0.0 mm 0.00 in0.0 mm 0.00 in0.0 mm
07:36 PM 42.6°F5.9°C 36.6°F2.6°C 79% 2.1 mph ENE3.4 kmh ENE 5.4 mph8.7 kmh 30.60 in1036.2 mb 0.00 in0.0 mm 0.00 in0.0 mm 0.00 in0.0 mm
07:48 PM 42.6°F5.9°C 36.6°F2.6°C 79% 1.9 mph ENE3.1 kmh ENE 7.0 mph11.3 kmh 30.61 in1036.6 mb 0.00 in0.0 mm 0.00 in0.0 mm 0.00 in0.0 mm
08:00 PM 42.4°F5.8°C 36.7°F2.6°C 80% 2.2 mph ENE3.5 kmh ENE 7.0 mph11.3 kmh 30.61 in1036.6 mb 0.00 in0.0 mm 0.00 in0.0 mm 0.00 in0.0 mm
08:12 PM 42.3°F5.7°C 36.9°F2.7°C 81% 1.7 mph S2.7 kmh S 6.1 mph9.8 kmh 30.61 in1036.6 mb 0.00 in0.0 mm 0.00 in0.0 mm 0.00 in0.0 mm
08:24 PM 42.3°F5.7°C 36.9°F2.7°C 81% 1.9 mph E3.1 kmh E 7.0 mph11.3 kmh 30.62 in1036.9 mb 0.00 in0.0 mm 0.00 in0.0 mm 0.00 in0.0 mm
08:36 PM 42.3°F5.7°C 37.2°F2.9°C 82% 2.3 mph ENE3.7 kmh ENE 6.1 mph9.8 kmh 30.62 in1036.9 mb 0.00 in0.0 mm 0.00 in0.0 mm 0.00 in0.0 mm
08:48 PM 42.1°F5.6°C 37.0°F2.8°C 82% 2.0 mph SE3.2 kmh SE 6.1 mph9.8 kmh 30.61 in1036.6 mb 0.00 in0.0 mm 0.00 in0.0 mm 0.00 in0.0 mm
09:00 PM 41.9°F5.5°C 36.8°F2.7°C 82% 1.6 mph E2.6 kmh E 5.4 mph8.7 kmh 30.62 in1036.9 mb 0.00 in0.0 mm 0.00 in0.0 mm 0.00 in0.0 mm
09:12 PM 41.9°F5.5°C 37.1°F2.8°C 83% 2.6 mph NE4.2 kmh NE 4.5 mph7.2 kmh 30.62 in1036.9 mb 0.00 in0.0 mm 0.00 in0.0 mm 0.00 in0.0 mm
09:24 PM 41.7°F5.4°C 36.9°F2.7°C 83% 1.2 mph ENE1.9 kmh ENE 4.5 mph7.2 kmh 30.63 in1037.3 mb 0.00 in0.0 mm 0.00 in0.0 mm 0.00 in0.0 mm
09:36 PM 41.4°F5.2°C 36.3°F2.4°C 82% 0.9 mph ESE1.4 kmh ESE 3.2 mph5.1 kmh 30.63 in1037.3 mb 0.00 in0.0 mm 0.00 in0.0 mm 0.00 in0.0 mm
09:48 PM 41.2°F5.1°C 36.1°F2.3°C 82% 0.5 mph S0.8 kmh S 2.3 mph3.7 kmh 30.63 in1037.3 mb 0.00 in0.0 mm 0.00 in0.0 mm 0.00 in0.0 mm
10:00 PM 41.0°F5.0°C 35.9°F2.2°C 82% 0.5 mph ESE0.8 kmh ESE 2.3 mph3.7 kmh 30.63 in1037.3 mb 0.00 in0.0 mm 0.00 in0.0 mm 0.00 in0.0 mm
10:12 PM 40.6°F4.8°C 35.9°F2.2°C 83% 0.2 mph WNW0.3 kmh WNW 1.6 mph2.6 kmh 30.63 in1037.3 mb 0.00 in0.0 mm 0.00 in0.0 mm 0.00 in0.0 mm
10:24 PM 40.1°F4.5°C 35.4°F1.9°C 83% 0.3 mph WSW0.5 kmh WSW 2.3 mph3.7 kmh 30.64 in1037.6 mb 0.00 in0.0 mm 0.00 in0.0 mm 0.00 in0.0 mm
10:36 PM 40.1°F4.5°C 35.7°F2.1°C 84% 0.3 mph NNW0.5 kmh NNW 2.3 mph3.7 kmh 30.64 in1037.6 mb 0.00 in0.0 mm 0.00 in0.0 mm 0.00 in0.0 mm
10:48 PM 40.1°F4.5°C 35.7°F2.1°C 84% 0.6 mph SE1.0 kmh SE 3.8 mph6.1 kmh 30.64 in1037.6 mb 0.00 in0.0 mm 0.00 in0.0 mm 0.00 in0.0 mm
11:00 PM 39.9°F4.4°C 35.5°F1.9°C 84% 0.3 mph NW0.5 kmh NW 3.2 mph5.1 kmh 30.64 in1037.6 mb 0.00 in0.0 mm 0.00 in0.0 mm 0.00 in0.0 mm
11:12 PM 39.9°F4.4°C 35.5°F1.9°C 84% 0.6 mph SSW1.0 kmh SSW 2.3 mph3.7 kmh 30.63 in1037.3 mb 0.00 in0.0 mm 0.00 in0.0 mm 0.00 in0.0 mm
11:24 PM 40.1°F4.5°C 35.7°F2.1°C 84% 1.0 mph NE1.6 kmh NE 3.8 mph6.1 kmh 30.63 in1037.3 mb 0.00 in0.0 mm 0.00 in0.0 mm 0.00 in0.0 mm
11:36 PM 40.1°F4.5°C 35.7°F2.1°C 84% 0.4 mph ENE0.6 kmh ENE 2.3 mph3.7 kmh 30.63 in1037.3 mb 0.00 in0.0 mm 0.00 in0.0 mm 0.00 in0.0 mm
11:48 PM 40.1°F4.5°C 35.7°F2.1°C 84% 0.7 mph NNW1.1 kmh NNW 3.2 mph5.1 kmh 30.63 in1037.3 mb 0.00 in0.0 mm 0.00 in0.0 mm 0.00 in0.0 mm